Time;durP1;ratioP1;P1;durP2;ratioP2;P2;SDS_P1;SDS_P2;PMS_P1;PMS_P2;Temp;Humidity;BMP_temperature;BMP_pressure;BME280_temperature;BME280_humidity;BME280_pressure;Samples;Min_cycle;Max_cycle;Signal;HPM_P1;HPM_P2
2021/11/29 00:01:56;;;;;;;31.98;21.25;;;4.00;76.60;;;;;;5003641;28;20504;-64
2021/11/29 00:04:22;;;;;;;34.72;22.30;;;4.00;76.70;;;;;;4990769;28;20033;-64
2021/11/29 00:06:49;;;;;;;31.30;20.55;;;4.00;76.60;;;;;;5003464;28;20488;-64
2021/11/29 00:09:14;;;;;;;28.13;17.88;;;4.00;76.60;;;;;;4996705;28;20031;-64
2021/11/29 00:11:41;;;;;;;15.88;10.63;;;4.00;76.90;;;;;;5000392;28;20796;-64
2021/11/29 00:14:07;;;;;;;17.80;10.98;;;4.10;78.20;;;;;;4997284;28;20624;-64
2021/11/29 00:16:33;;;;;;;19.77;13.15;;;4.10;78.80;;;;;;5004518;28;20038;-64
2021/11/29 00:18:59;;;;;;;21.60;14.27;;;4.20;79.50;;;;;;4998174;28;20056;-64
2021/11/29 00:21:25;;;;;;;23.15;14.70;;;4.30;79.50;;;;;;4999461;28;20049;-64
2021/11/29 00:23:51;;;;;;;22.17;14.27;;;4.30;79.50;;;;;;5004335;28;20556;-64
2021/11/29 00:26:21;;;;;;;20.38;13.55;;;4.40;79.40;;;;;;5005903;28;20117;-64
2021/11/29 00:28:47;;;;;;;19.40;13.20;;;4.40;79.30;;;;;;4996573;28;20457;-64
2021/11/29 00:31:13;;;;;;;20.30;13.00;;;4.50;79.30;;;;;;5003043;28;20026;-64
2021/11/29 00:33:39;;;;;;;24.90;16.45;;;4.50;79.40;;;;;;5005001;28;20493;-64
2021/11/29 00:36:05;;;;;;;22.08;14.93;;;4.60;80.40;;;;;;5000834;28;20088;-64
2021/11/29 00:38:31;;;;;;;24.38;16.92;;;4.60;79.60;;;;;;4999702;28;20095;-64
2021/11/29 00:40:58;;;;;;;21.92;13.63;;;4.60;79.80;;;;;;5001588;28;20053;-64
2021/11/29 00:43:24;;;;;;;21.77;13.23;;;4.60;80.90;;;;;;4997517;28;20050;-64
2021/11/29 00:45:50;;;;;;;19.42;12.55;;;4.60;81.20;;;;;;5000755;28;20527;-64
2021/11/29 00:48:16;;;;;;;19.83;12.80;;;4.70;81.20;;;;;;4998980;28;20096;-64
2021/11/29 00:50:42;;;;;;;20.67;12.65;;;4.70;81.30;;;;;;5007555;28;20489;-64
2021/11/29 00:53:11;;;;;;;19.00;12.15;;;4.70;81.80;;;;;;5006590;28;20044;-64
2021/11/29 00:55:38;;;;;;;16.38;9.63;;;4.70;82.20;;;;;;4997800;28;20102;-64
2021/11/29 00:58:04;;;;;;;15.82;9.65;;;4.70;82.50;;;;;;4999010;28;20129;-64
2021/11/29 01:00:30;;;;;;;16.65;9.27;;;4.70;83.30;;;;;;5006776;28;20030;-64
2021/11/29 01:02:57;;;;;;;16.40;9.27;;;4.70;83.60;;;;;;5000917;28;20026;-64
2021/11/29 01:05:22;;;;;;;15.75;8.38;;;4.80;83.20;;;;;;5000910;28;20032;-64
2021/11/29 01:07:49;;;;;;;15.73;8.73;;;4.80;83.00;;;;;;4997789;28;20646;-64
2021/11/29 01:10:17;;;;;;;14.02;8.55;;;4.80;82.90;;;;;;4999715;28;20024;-64
2021/11/29 01:12:44;;;;;;;12.95;8.13;;;4.90;82.90;;;;;;4997744;28;20034;-64
2021/11/29 01:15:13;;;;;;;13.23;7.50;;;4.90;82.80;;;;;;5000100;28;20034;-64
2021/11/29 01:17:39;;;;;;;18.25;8.23;;;4.90;82.80;;;;;;5002145;28;20025;-64
2021/11/29 01:20:07;;;;;;;14.45;7.97;;;5.00;83.10;;;;;;4999497;28;20084;-64
2021/11/29 01:22:33;;;;;;;13.68;8.35;;;5.00;82.70;;;;;;5008734;28;20022;-64
2021/11/29 01:24:59;;;;;;;14.63;8.65;;;5.00;82.50;;;;;;5002314;28;20085;-64
2021/11/29 01:27:25;;;;;;;14.30;8.30;;;5.00;82.40;;;;;;5004998;28;20045;-64
2021/11/29 01:29:51;;;;;;;13.65;8.25;;;5.00;82.50;;;;;;5006122;28;20021;-64
2021/11/29 01:32:17;;;;;;;18.52;10.10;;;4.90;82.30;;;;;;4995315;28;20030;-64
2021/11/29 01:34:43;;;;;;;17.20;9.95;;;4.80;82.30;;;;;;5001221;28;20037;-64
2021/11/29 01:37:09;;;;;;;17.70;9.73;;;4.70;82.30;;;;;;5000233;28;20033;-64
2021/11/29 01:39:34;;;;;;;18.45;10.40;;;4.60;82.50;;;;;;4999939;28;20029;-64
2021/11/29 01:42:00;;;;;;;17.02;9.55;;;4.50;82.50;;;;;;5002360;28;20409;-64
2021/11/29 01:44:26;;;;;;;15.57;9.57;;;4.40;82.60;;;;;;4998684;28;20018;-64
2021/11/29 01:46:52;;;;;;;13.48;8.68;;;4.30;82.60;;;;;;5003993;28;20018;-64
2021/11/29 01:49:18;;;;;;;15.00;8.73;;;4.20;82.70;;;;;;5001962;28;20062;-64
2021/11/29 01:51:44;;;;;;;14.77;7.78;;;4.20;83.80;;;;;;4998091;28;20576;-64
2021/11/29 01:54:10;;;;;;;11.57;7.85;;;4.20;84.10;;;;;;4996127;28;20045;-64
2021/11/29 01:56:37;;;;;;;14.55;8.40;;;4.20;84.20;;;;;;5001835;28;20030;-64
2021/11/29 01:59:04;;;;;;;13.88;7.90;;;4.30;84.20;;;;;;4999854;28;20046;-64
2021/11/29 02:01:30;;;;;;;19.38;9.13;;;4.30;83.90;;;;;;4992192;28;20087;-64
2021/11/29 02:03:59;;;;;;;16.50;9.32;;;4.40;83.70;;;;;;5000636;28;20104;-64
2021/11/29 02:06:27;;;;;;;15.05;9.82;;;4.40;83.50;;;;;;5002299;28;20041;-64
2021/11/29 02:08:54;;;;;;;14.50;8.23;;;4.40;83.40;;;;;;4999109;28;20725;-64
2021/11/29 02:11:22;;;;;;;16.98;9.20;;;4.50;83.50;;;;;;5007057;28;20069;-64
2021/11/29 02:13:49;;;;;;;17.52;10.10;;;4.50;83.30;;;;;;4996024;28;20022;-64
2021/11/29 02:16:15;;;;;;;17.45;8.98;;;4.60;83.10;;;;;;4999155;28;20018;-64
2021/11/29 02:18:41;;;;;;;15.90;8.68;;;4.60;83.00;;;;;;4996138;28;20738;-64
2021/11/29 02:21:08;;;;;;;14.05;8.75;;;4.60;83.00;;;;;;5001702;28;20386;-64
2021/11/29 02:23:40;;;;;;;13.75;8.57;;;4.60;82.90;;;;;;5004317;28;20489;-64
2021/11/29 02:26:07;;;;;;;13.70;8.70;;;4.60;82.90;;;;;;5000322;28;20046;-64
2021/11/29 02:28:34;;;;;;;13.15;8.02;;;4.70;82.90;;;;;;4994583;28;20041;-64
2021/11/29 02:31:05;;;;;;;17.88;9.55;;;4.70;82.70;;;;;;4999778;28;20038;-65
2021/11/29 02:33:30;;;;;;;13.20;8.75;;;4.70;82.80;;;;;;5002902;28;20131;-64
2021/11/29 02:35:56;;;;;;;12.93;8.20;;;4.60;82.80;;;;;;4999235;28;20509;-64
2021/11/29 02:38:22;;;;;;;16.73;8.80;;;4.60;82.90;;;;;;5005374;28;20105;-64
2021/11/29 02:40:48;;;;;;;13.73;8.00;;;4.50;82.80;;;;;;4995974;28;20126;-64
2021/11/29 02:43:14;;;;;;;14.85;8.25;;;4.50;82.90;;;;;;4999928;28;20042;-64
2021/11/29 02:45:39;;;;;;;13.02;8.43;;;4.40;82.90;;;;;;4998103;28;20389;-64
2021/11/29 02:48:05;;;;;;;26.10;9.00;;;4.40;82.70;;;;;;4999091;28;20511;-64
2021/11/29 02:50:36;;;;;;;27.23;8.65;;;4.20;82.50;;;;;;4996313;28;20026;-64
2021/11/29 02:53:04;;;;;;;17.60;8.63;;;4.10;82.60;;;;;;4998206;28;20509;-64
2021/11/29 02:55:30;;;;;;;13.95;7.63;;;4.00;82.70;;;;;;4997872;28;20030;-64
2021/11/29 02:57:55;;;;;;;17.45;6.97;;;3.90;82.60;;;;;;5007007;28;20041;-64
2021/11/29 03:00:21;;;;;;;26.02;8.80;;;3.80;82.80;;;;;;5001488;28;20045;-64
2021/11/29 03:03:05;;;;;;;266.65;13.75;;;3.70;83.00;;;;;;4999029;28;20241;-64
2021/11/29 03:05:32;;;;;;;220.68;14.50;;;3.60;83.00;;;;;;4998512;28;20396;-64
2021/11/29 03:07:58;;;;;;;35.03;7.93;;;3.50;83.20;;;;;;4998086;28;20149;-64
2021/11/29 03:10:24;;;;;;;27.10;8.10;;;3.40;83.40;;;;;;4998372;28;20550;-64
2021/11/29 03:12:49;;;;;;;16.58;8.35;;;3.30;83.40;;;;;;4982448;28;20444;-64
2021/11/29 03:15:15;;;;;;;16.40;8.10;;;3.30;83.60;;;;;;4997572;28;20599;-64
2021/11/29 03:17:42;;;;;;;35.22;8.27;;;3.20;83.70;;;;;;4999573;28;20038;-64
2021/11/29 03:20:12;;;;;;;35.17;7.60;;;3.20;83.80;;;;;;4997970;28;20072;-64
2021/11/29 03:22:38;;;;;;;43.38;9.68;;;3.20;83.90;;;;;;4998657;28;20039;-64
2021/11/29 03:25:05;;;;;;;27.33;7.93;;;3.10;83.80;;;;;;4999564;28;20049;-64
2021/11/29 03:27:31;;;;;;;16.17;7.95;;;3.10;83.90;;;;;;4996847;28;20026;-64
2021/11/29 03:29:57;;;;;;;33.58;8.93;;;3.10;83.90;;;;;;4997664;28;20034;-64
2021/11/29 03:32:23;;;;;;;196.05;13.05;;;3.10;83.90;;;;;;5001139;28;20026;-64
2021/11/29 03:34:50;;;;;;;100.85;10.95;;;3.20;84.00;;;;;;5000771;28;20049;-64
2021/11/29 03:37:18;;;;;;;51.90;11.20;;;3.20;83.90;;;;;;4999416;28;20050;-64
2021/11/29 03:39:44;;;;;;;160.82;15.23;;;3.30;83.80;;;;;;5002379;28;20027;-64
2021/11/29 03:42:10;;;;;;;107.07;10.27;;;3.30;83.60;;;;;;4997285;28;20034;-64
2021/11/29 03:44:37;;;;;;;96.40;10.40;;;3.30;83.60;;;;;;5001382;28;20026;-64
2021/11/29 03:47:04;;;;;;;44.58;21.30;;;3.40;83.60;;;;;;4993480;28;20034;-64
2021/11/29 03:49:30;;;;;;;32.38;16.00;;;3.40;83.50;;;;;;5000128;28;20030;-64
2021/11/29 03:51:56;;;;;;;111.78;13.20;;;3.30;83.30;;;;;;5001807;28;20164;-64
2021/11/29 03:54:23;;;;;;;57.97;12.45;;;3.20;83.10;;;;;;5004317;28;20044;-64
2021/11/29 03:56:49;;;;;;;43.95;12.02;;;3.20;83.10;;;;;;5005551;28;20540;-64
2021/11/29 03:59:16;;;;;;;127.68;14.02;;;3.10;83.20;;;;;;5002704;28;20048;-64
2021/11/29 04:01:42;;;;;;;95.38;14.77;;;3.10;83.50;;;;;;5002951;28;20696;-64
2021/11/29 04:04:08;;;;;;;51.22;11.23;;;3.10;83.60;;;;;;5002793;28;20105;-64
2021/11/29 04:06:34;;;;;;;60.22;11.90;;;3.00;83.70;;;;;;5002585;28;20101;-64
2021/11/29 04:09:02;;;;;;;154.73;13.10;;;3.00;83.90;;;;;;5002558;28;20030;-64
2021/11/29 04:11:28;;;;;;;50.33;11.40;;;3.00;84.00;;;;;;5004802;28;20029;-64
2021/11/29 04:13:53;;;;;;;50.08;11.85;;;3.00;84.10;;;;;;5007479;28;20022;-64
2021/11/29 04:16:19;;;;;;;42.92;10.80;;;2.90;84.20;;;;;;4999572;28;20022;-64
2021/11/29 04:18:45;;;;;;;52.80;12.75;;;3.00;84.30;;;;;;4998575;28;20038;-64
2021/11/29 04:21:12;;;;;;;26.27;10.30;;;3.00;84.30;;;;;;5002281;28;20049;-64
2021/11/29 04:23:38;;;;;;;25.90;10.15;;;3.10;84.30;;;;;;5003794;28;20456;-64
2021/11/29 04:26:04;;;;;;;25.00;10.43;;;3.20;84.30;;;;;;5000547;28;20068;-64
2021/11/29 04:28:31;;;;;;;18.63;9.85;;;3.30;84.10;;;;;;5001818;28;20034;-64
2021/11/29 04:30:57;;;;;;;15.55;9.82;;;3.40;84.10;;;;;;5004071;28;20048;-64
2021/11/29 04:33:23;;;;;;;14.07;9.45;;;3.40;84.30;;;;;;5000239;28;20489;-64
2021/11/29 04:35:49;;;;;;;14.70;9.15;;;3.50;84.30;;;;;;4998388;28;20451;-64
2021/11/29 04:38:15;;;;;;;17.50;10.20;;;3.50;84.30;;;;;;5004060;28;20030;-64
2021/11/29 04:40:41;;;;;;;16.30;10.57;;;3.60;84.20;;;;;;4999886;28;20089;-64
2021/11/29 04:43:07;;;;;;;16.70;9.63;;;3.70;84.20;;;;;;4999611;28;20133;-64
2021/11/29 04:45:33;;;;;;;51.15;11.73;;;3.70;84.10;;;;;;4998277;28;20149;-64
2021/11/29 04:47:59;;;;;;;53.78;12.23;;;3.70;84.10;;;;;;5003215;28;20029;-64
2021/11/29 04:50:25;;;;;;;38.55;11.18;;;3.80;84.10;;;;;;5003041;28;20018;-64
2021/11/29 04:52:51;;;;;;;67.63;14.73;;;3.90;84.20;;;;;;5004731;28;20022;-64
2021/11/29 04:55:17;;;;;;;77.82;19.35;;;3.90;84.30;;;;;;5001290;28;20049;-64
2021/11/29 04:57:43;;;;;;;41.97;17.48;;;4.00;84.60;;;;;;5000938;28;20121;-64
2021/11/29 05:00:12;;;;;;;133.07;56.42;;;4.00;84.80;;;;;;4998410;28;20026;-64
2021/11/29 05:02:37;;;;;;;60.95;27.50;;;4.00;85.00;;;;;;5001916;28;20064;-64
2021/11/29 05:05:05;;;;;;;43.72;20.42;;;4.10;85.30;;;;;;4998008;28;20053;-64
2021/11/29 05:07:30;;;;;;;31.35;18.00;;;4.20;85.50;;;;;;4997375;28;20023;-64
2021/11/29 05:09:56;;;;;;;46.10;25.52;;;4.20;85.60;;;;;;4996233;28;20049;-64
2021/11/29 05:12:22;;;;;;;30.80;17.15;;;4.30;85.60;;;;;;4993710;28;20478;-64
2021/11/29 05:14:49;;;;;;;32.10;18.42;;;4.30;85.50;;;;;;5000187;28;20026;-64
2021/11/29 05:17:15;;;;;;;34.42;20.85;;;4.40;85.80;;;;;;5001305;28;20026;-64
2021/11/29 05:19:41;;;;;;;34.95;20.65;;;4.40;86.30;;;;;;4996385;28;20038;-64
2021/11/29 05:22:07;;;;;;;20.25;12.68;;;4.40;86.40;;;;;;5000700;28;20030;-64
2021/11/29 05:24:33;;;;;;;18.67;11.18;;;4.30;86.00;;;;;;5000591;28;20132;-64
2021/11/29 05:26:59;;;;;;;19.38;11.73;;;4.30;85.70;;;;;;5007322;28;20485;-64
2021/11/29 05:29:24;;;;;;;24.23;15.13;;;4.20;85.60;;;;;;5003426;28;20030;-64
2021/11/29 05:31:50;;;;;;;36.05;21.70;;;4.10;85.60;;;;;;4997810;28;20037;-64
2021/11/29 05:34:16;;;;;;;45.35;27.38;;;4.00;85.60;;;;;;5002678;28;20038;-64
2021/11/29 05:36:42;;;;;;;22.98;12.85;;;3.90;85.70;;;;;;5002235;28;20041;-64
2021/11/29 05:39:08;;;;;;;17.20;10.98;;;3.80;85.70;;;;;;5003880;28;20034;-64
2021/11/29 05:41:34;;;;;;;18.70;11.15;;;3.70;85.80;;;;;;4999768;28;20037;-64
2021/11/29 05:44:00;;;;;;;16.20;10.40;;;3.70;85.90;;;;;;4999987;28;20809;-65
2021/11/29 05:46:27;;;;;;;15.52;9.43;;;3.60;85.90;;;;;;4995477;28;20030;-64
2021/11/29 05:48:56;;;;;;;16.40;9.45;;;3.60;86.00;;;;;;4996873;28;20129;-64
2021/11/29 05:51:21;;;;;;;15.18;9.05;;;3.50;86.00;;;;;;4996486;28;20026;-65
2021/11/29 05:53:47;;;;;;;15.02;9.80;;;3.40;86.00;;;;;;5001020;28;20037;-65
2021/11/29 05:56:15;;;;;;;13.82;9.20;;;3.40;86.00;;;;;;4995616;28;20081;-65
2021/11/29 05:58:40;;;;;;;16.85;9.55;;;3.30;86.10;;;;;;5002005;28;20038;-64
2021/11/29 06:01:06;;;;;;;14.00;8.52;;;3.30;86.10;;;;;;5001364;28;20033;-65
2021/11/29 06:03:32;;;;;;;14.55;8.93;;;3.20;86.10;;;;;;5002773;28;20141;-65
2021/11/29 06:05:58;;;;;;;14.07;8.40;;;3.10;85.90;;;;;;4994570;28;20026;-65
2021/11/29 06:08:24;;;;;;;19.58;11.38;;;3.10;86.00;;;;;;5000085;28;20038;-65
2021/11/29 06:10:49;;;;;;;20.80;12.10;;;3.00;86.00;;;;;;5001974;28;20111;-65
2021/11/29 06:13:15;;;;;;;19.83;12.07;;;3.00;86.50;;;;;;5001080;28;20026;-65
2021/11/29 06:15:42;;;;;;;17.65;11.05;;;2.90;86.70;;;;;;4998608;28;20038;-65
2021/11/29 06:18:08;;;;;;;19.95;10.43;;;2.90;87.00;;;;;;5006279;28;20053;-65
2021/11/29 06:20:41;;;;;;;16.40;9.82;;;2.90;87.10;;;;;;4999737;28;20452;-66
2021/11/29 06:23:13;;;;;;;16.88;9.25;;;2.90;86.90;;;;;;5007223;28;20048;-66
2021/11/29 06:25:42;;;;;;;16.50;9.75;;;2.80;86.80;;;;;;5006309;28;20029;-65
2021/11/29 06:28:11;;;;;;;19.45;10.13;;;2.80;86.80;;;;;;4999351;28;20034;-64
2021/11/29 06:30:41;;;;;;;14.95;9.30;;;2.80;86.70;;;;;;4999368;28;20027;-65
2021/11/29 06:33:09;;;;;;;21.15;10.07;;;2.80;86.70;;;;;;4995185;28;20421;-65
2021/11/29 06:35:38;;;;;;;16.52;9.20;;;2.70;86.70;;;;;;5000479;28;20034;-65
2021/11/29 06:38:09;;;;;;;15.20;9.90;;;2.70;86.60;;;;;;5002129;28;20045;-65
2021/11/29 06:40:38;;;;;;;22.23;10.63;;;2.60;86.50;;;;;;5000853;28;20068;-65
2021/11/29 06:43:04;;;;;;;16.80;9.93;;;2.60;86.60;;;;;;5001599;28;20069;-65
2021/11/29 06:45:30;;;;;;;17.55;10.70;;;2.60;86.70;;;;;;5001452;28;20096;-65
2021/11/29 06:47:56;;;;;;;16.50;9.68;;;2.50;86.70;;;;;;5005948;28;20797;-65
2021/11/29 06:50:23;;;;;;;14.07;9.38;;;2.50;86.70;;;;;;4998261;28;20022;-65
2021/11/29 06:52:49;;;;;;;16.58;10.73;;;2.50;86.80;;;;;;5005913;28;20022;-65
2021/11/29 06:55:16;;;;;;;16.55;10.60;;;2.40;86.70;;;;;;4999193;28;20109;-65
2021/11/29 06:57:43;;;;;;;18.75;10.25;;;2.50;86.80;;;;;;5000847;28;20042;-65
2021/11/29 07:00:15;;;;;;;22.63;12.75;;;2.50;86.60;;;;;;5000288;28;20046;-65
2021/11/29 07:02:43;;;;;;;16.85;10.75;;;2.40;86.50;;;;;;5006980;28;20096;-65
2021/11/29 07:05:10;;;;;;;34.35;14.95;;;2.40;86.60;;;;;;5002936;28;20033;-65
2021/11/29 07:07:35;;;;;;;19.42;11.57;;;2.40;86.60;;;;;;5003340;28;20034;-65
2021/11/29 07:10:04;;;;;;;18.52;11.43;;;2.40;86.60;;;;;;5004187;28;20040;-65
2021/11/29 07:12:30;;;;;;;18.05;11.25;;;2.30;87.60;;;;;;5001512;28;20030;-65
2021/11/29 07:14:56;;;;;;;20.20;11.57;;;2.30;86.70;;;;;;5005041;28;20030;-65
2021/11/29 07:17:21;;;;;;;28.35;11.18;;;2.30;86.80;;;;;;4998622;28;20068;-65
2021/11/29 07:19:52;;;;;;;26.40;11.73;;;2.30;86.70;;;;;;4991695;28;20089;-65
2021/11/29 07:22:20;;;;;;;67.13;13.68;;;2.40;86.70;;;;;;5000673;28;20454;-65
2021/11/29 07:24:47;;;;;;;57.55;13.38;;;2.40;86.70;;;;;;5001103;28;20060;-65
2021/11/29 07:27:13;;;;;;;131.68;12.68;;;2.40;86.90;;;;;;5002665;28;20034;-65
2021/11/29 07:29:39;;;;;;;143.13;13.82;;;2.50;87.20;;;;;;4993371;28;20100;-65
2021/11/29 07:32:05;;;;;;;156.30;14.20;;;2.50;87.30;;;;;;5002616;28;20061;-65
2021/11/29 07:34:30;;;;;;;172.48;14.20;;;2.60;87.20;;;;;;5003176;28;20036;-65
2021/11/29 07:36:56;;;;;;;130.07;13.50;;;2.60;87.10;;;;;;4995545;28;20101;-65
2021/11/29 07:39:22;;;;;;;151.63;14.77;;;2.60;87.10;;;;;;4994057;28;20042;-65
2021/11/29 07:41:47;;;;;;;104.85;12.98;;;2.70;86.90;;;;;;4999339;28;20026;-65
2021/11/29 07:44:14;;;;;;;85.43;11.75;;;2.70;86.80;;;;;;5005496;28;20061;-65
2021/11/29 07:46:39;;;;;;;76.28;12.52;;;2.70;86.60;;;;;;5002878;28;20030;-65
2021/11/29 07:49:05;;;;;;;73.72;11.45;;;2.70;86.70;;;;;;5003379;28;20021;-65
2021/11/29 07:51:31;;;;;;;74.32;11.98;;;2.70;86.30;;;;;;5003163;28;20113;-65
2021/11/29 07:53:57;;;;;;;45.40;13.45;;;2.70;86.10;;;;;;4998739;28;20096;-65
2021/11/29 07:56:23;;;;;;;57.00;11.55;;;2.80;86.00;;;;;;5007288;28;20533;-65
2021/11/29 07:58:48;;;;;;;65.80;11.57;;;2.80;85.80;;;;;;4997002;28;20046;-65
2021/11/29 08:01:15;;;;;;;41.15;11.52;;;2.90;85.70;;;;;;5003761;28;20105;-65
2021/11/29 08:03:41;;;;;;;44.67;11.90;;;2.90;85.30;;;;;;4997428;28;20516;-65
2021/11/29 08:06:07;;;;;;;36.95;12.63;;;2.90;85.10;;;;;;4988424;28;20030;-65
2021/11/29 08:08:33;;;;;;;36.35;11.13;;;2.90;84.80;;;;;;5002420;28;20477;-65
2021/11/29 08:10:59;;;;;;;47.40;11.68;;;3.00;85.40;;;;;;5002342;28;20030;-65
2021/11/29 08:13:24;;;;;;;36.67;11.32;;;3.00;84.10;;;;;;4995506;28;20065;-65
2021/11/29 08:15:50;;;;;;;47.95;11.25;;;3.00;83.90;;;;;;4996797;28;20033;-65
2021/11/29 08:18:16;;;;;;;51.47;11.60;;;3.10;83.60;;;;;;5003061;28;20034;-65
2021/11/29 08:20:42;;;;;;;38.97;10.95;;;3.30;83.20;;;;;;5001933;28;20118;-65
2021/11/29 08:23:10;;;;;;;34.25;10.32;;;3.40;82.90;;;;;;5000791;28;20034;-65
2021/11/29 08:25:40;;;;;;;20.00;11.35;;;3.60;82.30;;;;;;5002632;28;20021;-65
2021/11/29 08:28:06;;;;;;;31.65;11.43;;;3.70;81.70;;;;;;5003063;28;20026;-65
2021/11/29 08:30:32;;;;;;;21.08;10.50;;;3.90;81.30;;;;;;5002497;28;20077;-65
2021/11/29 08:32:58;;;;;;;15.27;9.90;;;4.10;80.70;;;;;;5002122;28;20026;-65
2021/11/29 08:35:24;;;;;;;15.15;10.20;;;4.30;80.10;;;;;;5009062;28;20026;-65
2021/11/29 08:37:52;;;;;;;14.05;9.70;;;4.60;79.30;;;;;;5005270;28;20173;-65
2021/11/29 08:40:21;;;;;;;17.50;10.07;;;4.90;78.40;;;;;;5005381;28;20037;-65
2021/11/29 08:42:47;;;;;;;14.05;9.85;;;5.30;77.50;;;;;;4999324;28;20050;-65
2021/11/29 08:45:13;;;;;;;18.33;9.77;;;5.90;76.20;;;;;;5008274;28;20022;-65
2021/11/29 08:47:39;;;;;;;16.92;10.95;;;6.20;75.00;;;;;;5005734;28;20496;-65
2021/11/29 08:50:06;;;;;;;26.30;11.93;;;6.60;74.40;;;;;;5009108;28;20037;-65
2021/11/29 08:52:34;;;;;;;17.48;11.88;;;6.90;73.30;;;;;;5006055;28;20034;-65
2021/11/29 08:55:09;;;;;;;13.80;9.80;;;7.20;72.40;;;;;;5004782;28;20065;-65
2021/11/29 08:57:36;;;;;;;12.95;10.13;;;7.80;70.70;;;;;;5003375;28;20472;-65
2021/11/29 09:00:16;;;;;;;11.40;9.10;;;8.80;68.50;;;;;;4997799;28;20037;-65
2021/11/29 09:02:42;;;;;;;14.40;12.90;;;10.00;65.10;;;;;;4996381;28;20400;-65
2021/11/29 09:05:09;;;;;;;13.52;12.13;;;11.20;61.50;;;;;;5004529;28;20180;-65
2021/11/29 09:07:35;;;;;;;17.63;12.15;;;12.10;58.90;;;;;;4998211;28;20513;-65
2021/11/29 09:10:04;;;;;;;24.33;12.90;;;12.80;56.30;;;;;;5000695;28;20083;-65
2021/11/29 09:12:30;;;;;;;49.28;12.10;;;13.30;54.40;;;;;;5002897;28;20425;-65
2021/11/29 09:14:56;;;;;;;95.82;12.00;;;12.60;53.90;;;;;;5003201;28;20023;-65
2021/11/29 09:17:21;;;;;;;86.88;11.65;;;11.90;55.20;;;;;;5009297;28;20037;-65
2021/11/29 09:19:47;;;;;;;109.97;12.20;;;11.40;56.40;;;;;;5006933;28;20115;-65
2021/11/29 09:22:13;;;;;;;135.77;10.93;;;10.80;57.40;;;;;;5003766;28;20157;-65
2021/11/29 09:24:39;;;;;;;82.32;9.38;;;10.30;58.60;;;;;;5002393;28;20499;-65
2021/11/29 09:27:05;;;;;;;52.33;8.38;;;10.00;58.90;;;;;;5004803;28;20034;-65
2021/11/29 09:29:30;;;;;;;25.05;7.75;;;9.70;59.70;;;;;;4996757;28;20044;-65
2021/11/29 09:31:58;;;;;;;15.57;8.77;;;9.50;60.50;;;;;;5007044;28;20079;-65
2021/11/29 09:34:24;;;;;;;11.05;9.02;;;9.50;60.50;;;;;;5002446;28;20400;-65
2021/11/29 09:36:50;;;;;;;17.30;10.25;;;9.60;60.50;;;;;;4998169;28;20677;-65
2021/11/29 09:39:16;;;;;;;31.70;10.20;;;9.80;60.30;;;;;;4995808;28;20038;-65
2021/11/29 09:41:42;;;;;;;19.33;10.20;;;10.30;59.30;;;;;;5007013;28;20126;-66
2021/11/29 09:44:08;;;;;;;15.25;11.70;;;10.50;58.70;;;;;;4998824;28;20517;-65
2021/11/29 09:46:34;;;;;;;15.93;11.75;;;10.50;58.60;;;;;;5002239;28;20034;-65
2021/11/29 09:49:01;;;;;;;12.68;10.00;;;10.30;59.00;;;;;;4999526;28;20109;-65
2021/11/29 09:51:28;;;;;;;13.30;10.02;;;10.20;59.50;;;;;;4999096;28;20030;-65
2021/11/29 09:53:54;;;;;;;18.00;13.50;;;10.10;60.00;;;;;;5005954;28;20015;-65
2021/11/29 09:56:20;;;;;;;12.48;10.40;;;10.00;60.50;;;;;;5007929;28;20041;-65
2021/11/29 09:58:47;;;;;;;14.98;9.75;;;9.90;60.70;;;;;;5000721;28;20182;-65
2021/11/29 10:01:14;;;;;;;10.63;8.65;;;9.80;61.40;;;;;;5001595;28;20390;-65
2021/11/29 10:03:40;;;;;;;10.80;8.05;;;9.60;61.90;;;;;;5001622;28;20034;-65
2021/11/29 10:06:06;;;;;;;10.75;8.50;;;9.40;62.70;;;;;;5003267;28;20391;-65
2021/11/29 10:08:35;;;;;;;12.63;9.65;;;9.30;63.30;;;;;;5002933;28;20033;-65
2021/11/29 10:11:06;;;;;;;12.18;8.88;;;9.50;63.10;;;;;;5003384;28;20489;-65
2021/11/29 10:13:50;;;;;;;;;;;9.80;62.50;;;;;;5001434;28;20531;-65
2021/11/29 10:16:36;;;;;;;11.35;8.02;;;10.50;60.80;;;;;;5002088;28;19935;-65
2021/11/29 10:19:05;;;;;;;10.40;9.35;;;11.40;58.60;;;;;;5003230;28;20045;-65
2021/11/29 10:21:32;;;;;;;14.15;11.00;;;12.10;58.10;;;;;;5001807;28;20030;-66
2021/11/29 10:23:58;;;;;;;12.13;9.75;;;13.70;55.20;;;;;;5006415;28;20026;-65
2021/11/29 10:26:35;;;;;;;13.80;11.57;;;14.40;52.90;;;;;;5008134;28;20025;-65
2021/11/29 10:29:05;;;;;;;9.93;7.90;;;15.10;51.90;;;;;;4992076;28;20034;-65
2021/11/29 10:31:46;;;;;;;10.80;8.38;;;14.70;51.60;;;;;;4996150;28;20033;-66
2021/11/29 10:34:33;;;;;;;8.73;7.10;;;14.20;52.70;;;;;;5001188;28;20037;-65
2021/11/29 10:37:12;;;;;;;9.55;6.85;;;13.70;53.40;;;;;;4999485;28;20033;-65
2021/11/29 10:39:41;;;;;;;8.65;6.32;;;13.40;54.10;;;;;;4997369;28;20044;-65
2021/11/29 10:42:10;;;;;;;10.20;7.55;;;13.50;54.40;;;;;;5004630;28;20030;-66
2021/11/29 10:44:39;;;;;;;10.13;7.65;;;14.20;53.60;;;;;;5007401;28;20029;-65
2021/11/29 10:47:17;;;;;;;10.07;7.82;;;14.70;52.10;;;;;;5004058;28;20865;-66
2021/11/29 10:49:49;;;;;;;8.98;6.78;;;15.40;50.50;;;;;;4998222;28;20517;-66
2021/11/29 10:52:21;;;;;;;9.85;7.03;;;15.60;50.00;;;;;;5001350;28;20029;-66
2021/11/29 10:54:47;;;;;;;10.32;7.47;;;15.70;49.40;;;;;;5002412;28;20096;-66
2021/11/29 10:57:16;;;;;;;9.75;7.35;;;15.50;49.80;;;;;;5004229;28;20030;-65
2021/11/29 10:59:45;;;;;;;11.07;7.95;;;15.30;50.00;;;;;;5006256;28;20041;-65
2021/11/29 11:02:16;;;;;;;10.07;6.80;;;15.20;50.20;;;;;;5005893;28;20029;-66
2021/11/29 11:04:47;;;;;;;9.80;7.03;;;15.10;50.50;;;;;;5004703;28;20121;-65
2021/11/29 11:07:24;;;;;;;10.82;7.15;;;15.40;49.20;;;;;;4999563;28;20472;-65
2021/11/29 11:09:58;;;;;;;9.52;7.35;;;15.60;49.00;;;;;;4998552;28;20113;-65
2021/11/29 11:12:27;;;;;;;9.55;5.97;;;16.20;48.10;;;;;;5005181;28;20491;-65
2021/11/29 11:14:56;;;;;;;11.35;6.70;;;16.20;48.00;;;;;;5004438;28;20030;-66
2021/11/29 11:17:25;;;;;;;7.82;6.22;;;16.30;47.60;;;;;;5000985;28;20034;-66
2021/11/29 11:19:55;;;;;;;8.40;6.63;;;16.80;47.10;;;;;;4986609;28;20449;-66
2021/11/29 11:22:31;;;;;;;7.63;6.03;;;17.70;45.50;;;;;;4993170;28;20045;-66
2021/11/29 11:24:56;;;;;;;8.98;6.88;;;18.20;44.10;;;;;;4997626;28;20490;-66
2021/11/29 11:27:26;;;;;;;7.22;5.82;;;18.90;43.40;;;;;;4999874;28;20035;-66
2021/11/29 11:29:55;;;;;;;7.68;5.40;;;20.00;41.30;;;;;;4993689;28;20088;-66
2021/11/29 11:32:29;;;;;;;7.97;5.07;;;19.20;41.40;;;;;;4993844;28;20018;-66
2021/11/29 11:34:56;;;;;;;8.40;5.40;;;18.40;42.70;;;;;;4997057;28;20037;-66
2021/11/29 11:37:26;;;;;;;7.80;4.93;;;17.70;43.90;;;;;;4997969;28;20068;-66
2021/11/29 11:39:53;;;;;;;7.90;5.03;;;17.00;44.80;;;;;;5005493;28;20046;-66
2021/11/29 11:42:20;;;;;;;7.13;5.03;;;16.50;45.70;;;;;;5009123;28;20092;-66
2021/11/29 11:44:46;;;;;;;7.18;5.03;;;16.10;46.60;;;;;;5008953;28;20068;-65
2021/11/29 11:47:14;;;;;;;7.60;4.90;;;16.50;46.70;;;;;;5009367;28;20044;-66
2021/11/29 11:49:42;;;;;;;12.07;4.75;;;16.90;45.20;;;;;;5010538;28;20030;-66
2021/11/29 11:52:11;;;;;;;10.68;4.70;;;17.00;45.10;;;;;;5009495;28;20022;-66
2021/11/29 11:54:40;;;;;;;9.77;4.70;;;17.70;44.80;;;;;;5009366;28;20037;-66
2021/11/29 11:57:12;;;;;;;10.98;4.70;;;18.70;42.90;;;;;;5008935;28;20026;-66
2021/11/29 12:00:07;;;;;;;11.55;4.78;;;19.70;40.90;;;;;;5008886;28;20490;-66
2021/11/29 12:03:08;;;;;;;11.18;5.22;;;21.10;38.40;;;;;;4988615;28;20038;-66
2021/11/29 12:05:36;;;;;;;7.57;4.28;;;21.80;36.60;;;;;;4994102;28;20078;-66
2021/11/29 12:08:05;;;;;;;6.38;4.07;;;22.20;36.10;;;;;;5009409;28;20617;-66
2021/11/29 12:10:44;;;;;;;6.10;4.25;;;22.80;35.10;;;;;;5012402;28;20053;-66
2021/11/29 12:13:16;;;;;;;8.25;4.25;;;23.30;34.40;;;;;;5013312;28;20561;-66
2021/11/29 12:15:55;;;;;;;8.20;4.57;;;24.00;32.90;;;;;;5014029;28;20034;-66
2021/11/29 12:18:39;;;;;;;8.05;3.90;;;23.90;32.20;;;;;;5012437;28;20048;-66
2021/11/29 12:21:26;;;;;;;8.15;3.85;;;23.70;32.20;;;;;;5013309;28;20080;-66
2021/11/29 12:24:06;;;;;;;8.52;6.38;;;23.50;32.80;;;;;;5013572;28;20180;-66
2021/11/29 12:26:47;;;;;;;9.67;4.20;;;23.10;33.00;;;;;;4998518;28;20489;-66
2021/11/29 12:29:33;;;;;;;6.63;4.03;;;22.60;34.20;;;;;;5012646;28;20136;-66
2021/11/29 12:32:01;;;;;;;9.60;4.25;;;21.80;34.90;;;;;;4980767;28;20117;-66
2021/11/29 12:34:49;;;;;;;8.65;4.50;;;20.90;36.40;;;;;;5012925;28;20061;-66
2021/11/29 12:37:34;;;;;;;6.45;3.80;;;20.00;38.10;;;;;;5000981;28;20371;-66
2021/11/29 12:40:16;;;;;;;6.47;4.25;;;19.40;39.20;;;;;;5010153;28;20037;-66
2021/11/29 12:42:42;;;;;;;7.38;4.50;;;18.80;40.20;;;;;;5011957;28;20468;-66
2021/11/29 12:45:08;;;;;;;10.10;4.18;;;18.30;41.00;;;;;;5012251;28;20593;-65